createdAt,value
2022-10-01T00:00:56.621Z,3.38
2022-10-01T00:03:25.574Z,2.88
2022-10-01T00:06:11.080Z,3.95
2022-10-01T00:08:39.799Z,3.00
2022-10-01T00:11:11.960Z,5.03
2022-10-01T00:13:38.987Z,4.93
2022-10-01T00:16:08.578Z,3.97
2022-10-01T00:18:39.840Z,4.25
2022-10-01T00:21:11.795Z,2.83
2022-10-01T00:23:38.389Z,3.22
2022-10-01T00:26:16.928Z,10.02
2022-10-01T00:28:46.005Z,3.28
2022-10-01T00:31:14.351Z,3.35
2022-10-01T00:33:41.162Z,3.97
2022-10-01T00:36:09.755Z,3.83
2022-10-01T00:38:37.842Z,4.32
2022-10-01T00:41:05.153Z,3.35
2022-10-01T00:43:37.836Z,3.70
2022-10-01T00:46:29.922Z,3.35
2022-10-01T00:49:02.227Z,2.90
2022-10-01T00:51:33.130Z,2.78
2022-10-01T00:54:08.375Z,2.95
2022-10-01T00:56:34.785Z,3.87
2022-10-01T00:59:01.946Z,3.30
2022-10-01T01:01:28.674Z,3.13
2022-10-01T01:03:56.459Z,3.05
2022-10-01T01:06:22.862Z,4.55
2022-10-01T01:08:54.961Z,3.90
2022-10-01T01:11:30.068Z,2.58
2022-10-01T01:14:15.831Z,3.57
2022-10-01T01:16:59.699Z,4.38
2022-10-01T01:20:03.506Z,3.00
2022-10-01T01:22:34.509Z,2.60
2022-10-01T01:25:21.353Z,5.30
2022-10-01T01:28:19.734Z,3.05
2022-10-01T01:30:49.178Z,3.70
2022-10-01T01:33:20.535Z,3.65
2022-10-01T01:35:52.684Z,4.85
2022-10-01T01:38:24.339Z,4.57
2022-10-01T01:40:55.717Z,5.05
2022-10-01T01:43:31.501Z,4.28
2022-10-01T01:46:00.234Z,5.72
2022-10-01T01:48:29.063Z,5.72
2022-10-01T01:51:31.437Z,4.43
2022-10-01T01:53:59.163Z,3.63
2022-10-01T01:56:26.098Z,8.75
2022-10-01T01:58:53.979Z,4.28
2022-10-01T02:01:44.103Z,3.95
2022-10-01T02:04:22.131Z,3.53
2022-10-01T02:07:18.355Z,3.95
2022-10-01T02:10:17.303Z,5.45
2022-10-01T02:13:03.378Z,5.22
2022-10-01T02:16:27.529Z,5.05
2022-10-01T02:19:13.574Z,5.57
2022-10-01T02:22:06.085Z,4.45
2022-10-01T02:24:44.417Z,3.90
2022-10-01T02:27:40.429Z,4.68
2022-10-01T02:30:09.458Z,5.47
2022-10-01T02:32:38.821Z,3.65
2022-10-01T02:35:09.498Z,3.67
2022-10-01T02:37:38.511Z,5.20
2022-10-01T02:40:08.682Z,3.90
2022-10-01T02:42:37.191Z,5.40
2022-10-01T02:45:04.892Z,5.10
2022-10-01T02:47:36.743Z,4.30
2022-10-01T02:50:05.411Z,4.55
2022-10-01T02:52:45.577Z,7.10
2022-10-01T02:55:17.430Z,5.07
2022-10-01T02:57:43.845Z,5.82
2022-10-01T03:00:15.534Z,4.07
2022-10-01T03:02:42.385Z,4.05
2022-10-01T03:05:09.122Z,3.45
2022-10-01T03:07:36.172Z,4.43
2022-10-01T03:10:06.238Z,5.35
2022-10-01T03:12:33.049Z,3.42
2022-10-01T03:14:59.448Z,4.50
2022-10-01T03:17:26.034Z,3.15
2022-10-01T03:19:52.712Z,3.25
2022-10-01T03:22:22.550Z,2.97
2022-10-01T03:24:52.845Z,3.45
2022-10-01T03:27:20.691Z,5.55
2022-10-01T03:29:47.194Z,4.10
2022-10-01T03:32:13.828Z,3.00
2022-10-01T03:34:40.349Z,4.60
2022-10-01T03:37:07.230Z,3.85
2022-10-01T03:39:33.859Z,5.18
2022-10-01T03:42:00.500Z,3.78
2022-10-01T03:44:28.330Z,3.17
2022-10-01T03:46:55.072Z,3.50
2022-10-01T03:49:21.571Z,3.97
2022-10-01T03:51:47.928Z,3.15
2022-10-01T03:54:14.541Z,4.30
2022-10-01T03:56:42.584Z,5.55
2022-10-01T03:59:10.919Z,3.95
2022-10-01T04:01:38.950Z,3.30
2022-10-01T04:04:05.895Z,4.75
2022-10-01T04:06:32.823Z,4.20
2022-10-01T04:08:59.286Z,4.80
2022-10-01T04:11:25.908Z,3.75
2022-10-01T04:13:52.327Z,3.90
2022-10-01T04:16:18.911Z,3.53
2022-10-01T04:18:45.339Z,3.28
2022-10-01T04:21:12.750Z,4.32
2022-10-01T04:23:39.283Z,3.90
2022-10-01T04:26:05.782Z,3.30
2022-10-01T04:28:32.293Z,6.53
2022-10-01T04:31:17.566Z,5.40
2022-10-01T04:33:44.465Z,5.35
2022-10-01T04:36:11.003Z,7.88
2022-10-01T04:38:37.463Z,3.08
2022-10-01T04:41:04.006Z,2.67
2022-10-01T04:43:30.332Z,4.70
2022-10-01T04:45:56.695Z,4.03
2022-10-01T04:48:24.213Z,4.47
2022-10-01T04:50:50.560Z,2.85
2022-10-01T04:53:16.888Z,4.10
2022-10-01T04:55:43.720Z,2.80
2022-10-01T04:58:10.433Z,3.50
2022-10-01T05:00:36.919Z,4.00
2022-10-01T05:03:03.525Z,2.88
2022-10-01T05:05:32.868Z,6.03
2022-10-01T05:07:59.275Z,2.67
2022-10-01T05:10:26.171Z,2.40
2022-10-01T05:12:52.533Z,2.38
2022-10-01T05:15:19.377Z,2.45
2022-10-01T05:17:46.993Z,3.30
2022-10-01T05:20:19.515Z,2.38
2022-10-01T05:22:46.844Z,3.53
2022-10-01T05:25:13.844Z,2.10
2022-10-01T05:27:40.667Z,2.63
2022-10-01T05:30:08.869Z,2.20
2022-10-01T05:32:36.266Z,2.28
2022-10-01T05:35:03.921Z,3.35
2022-10-01T05:37:30.264Z,1.85
2022-10-01T05:39:56.619Z,2.25
2022-10-01T05:42:22.978Z,2.10
2022-10-01T05:44:50.113Z,1.92
2022-10-01T05:47:17.669Z,1.80
2022-10-01T05:49:44.821Z,1.98
2022-10-01T05:52:12.879Z,2.42
2022-10-01T05:54:39.809Z,1.92
2022-10-01T05:57:08.005Z,1.42
2022-10-01T05:59:35.370Z,1.60
2022-10-01T06:02:02.697Z,1.80
2022-10-01T06:04:29.121Z,1.30
2022-10-01T06:06:56.367Z,1.52
2022-10-01T06:09:22.890Z,1.77
2022-10-01T06:11:49.566Z,1.77
2022-10-01T06:14:16.464Z,1.90
2022-10-01T06:16:42.958Z,1.67
2022-10-01T06:19:09.655Z,1.52
2022-10-01T06:21:36.391Z,2.03
2022-10-01T06:24:03.215Z,1.38
2022-10-01T06:26:29.570Z,1.20
2022-10-01T06:28:56.586Z,3.20
2022-10-01T06:31:23.399Z,1.63
2022-10-01T06:33:49.857Z,1.50
2022-10-01T06:36:16.245Z,1.67
2022-10-01T06:38:43.050Z,2.17
2022-10-01T06:41:09.946Z,3.00
2022-10-01T06:43:36.266Z,2.35
2022-10-01T06:46:04.278Z,1.30
2022-10-01T06:48:31.424Z,1.95
2022-10-01T06:50:58.754Z,1.80
2022-10-01T06:53:27.938Z,2.45
2022-10-01T06:55:54.922Z,2.80
2022-10-01T06:58:23.480Z,1.50
2022-10-01T07:00:50.851Z,2.22
2022-10-01T07:03:19.994Z,1.45
2022-10-01T07:05:46.736Z,1.52
2022-10-01T07:08:13.238Z,1.70
2022-10-01T07:10:41.231Z,1.85
2022-10-01T07:13:09.562Z,1.77
2022-10-01T07:15:36.460Z,2.40
2022-10-01T07:18:03.268Z,1.70
2022-10-01T07:20:30.323Z,1.90
2022-10-01T07:22:58.659Z,2.88
2022-10-01T07:25:26.295Z,1.70
2022-10-01T07:27:57.342Z,2.13
2022-10-01T07:30:24.345Z,2.47
2022-10-01T07:32:50.874Z,2.42
2022-10-01T07:35:19.838Z,3.35
2022-10-01T07:37:48.019Z,2.97
2022-10-01T07:40:16.333Z,3.63
2022-10-01T07:42:43.562Z,2.10
2022-10-01T07:45:10.749Z,2.55
2022-10-01T07:47:37.146Z,3.40
2022-10-01T07:50:04.038Z,2.20
2022-10-01T07:52:30.377Z,2.40
2022-10-01T07:54:56.724Z,2.97
2022-10-01T07:57:23.305Z,2.78
2022-10-01T07:59:54.865Z,2.80
2022-10-01T08:02:22.201Z,3.03
2022-10-01T08:05:07.383Z,2.45
2022-10-01T08:07:35.638Z,2.75
2022-10-01T08:10:04.299Z,2.95
2022-10-01T08:12:30.683Z,2.42
2022-10-01T08:14:57.117Z,2.53
2022-10-01T08:17:28.580Z,2.25
2022-10-01T08:19:55.758Z,5.72
2022-10-01T08:22:22.078Z,2.65
2022-10-01T08:24:48.429Z,2.40
2022-10-01T08:27:14.866Z,3.25
2022-10-01T08:29:43.221Z,2.80
2022-10-01T08:32:10.672Z,2.28
2022-10-01T08:34:37.110Z,2.75
2022-10-01T08:37:03.509Z,1.98
2022-10-01T08:39:29.881Z,4.13
2022-10-01T08:42:36.351Z,1.70
2022-10-01T08:45:12.540Z,3.23
2022-10-01T08:47:43.750Z,2.95
2022-10-01T08:50:32.267Z,2.10
2022-10-01T08:53:04.390Z,2.70
2022-10-01T08:55:36.506Z,2.20
2022-10-01T08:58:10.270Z,3.38
2022-10-01T09:00:41.763Z,2.03
2022-10-01T09:03:12.725Z,2.80
2022-10-01T09:06:06.555Z,2.85
2022-10-01T09:08:54.878Z,2.58
2022-10-01T09:11:58.652Z,2.20
2022-10-01T09:14:55.293Z,2.55
2022-10-01T09:17:43.526Z,2.55
2022-10-01T09:20:27.369Z,3.15
2022-10-01T09:23:29.948Z,5.47
2022-10-01T09:25:59.501Z,3.72
2022-10-01T09:28:34.930Z,3.78
2022-10-01T09:31:13.969Z,2.10
2022-10-01T09:33:50.775Z,2.00
2022-10-01T09:36:33.543Z,2.45
2022-10-01T09:39:12.386Z,2.67
2022-10-01T09:41:38.791Z,3.13
2022-10-01T09:44:09.089Z,3.38
2022-10-01T09:46:35.564Z,2.70
2022-10-01T09:49:24.939Z,2.75
2022-10-01T09:51:57.147Z,4.35
2022-10-01T09:54:45.886Z,3.85
2022-10-01T09:57:25.090Z,3.05
2022-10-01T10:00:11.969Z,4.38
2022-10-01T10:02:48.918Z,4.20
2022-10-01T10:05:17.323Z,5.60
2022-10-01T10:08:08.053Z,5.35
2022-10-01T10:10:39.568Z,2.72
2022-10-01T10:13:21.970Z,4.32
2022-10-01T10:15:57.511Z,3.72
2022-10-01T10:18:34.835Z,2.65
2022-10-01T10:21:12.057Z,4.85
2022-10-01T10:23:50.891Z,5.38
2022-10-01T10:26:32.540Z,4.28
2022-10-01T10:29:02.109Z,5.20
2022-10-01T10:31:42.466Z,2.72
2022-10-01T10:34:16.447Z,3.58
2022-10-01T10:36:44.644Z,6.53
2022-10-01T10:39:20.827Z,7.28
2022-10-01T10:41:48.664Z,8.73
2022-10-01T10:44:21.277Z,3.55
2022-10-01T10:46:50.026Z,3.72
2022-10-01T10:49:16.466Z,5.55
2022-10-01T10:51:48.587Z,6.13
2022-10-01T10:54:20.267Z,4.97
2022-10-01T10:56:54.939Z,6.93
2022-10-01T10:59:21.371Z,5.00
2022-10-01T11:01:48.430Z,3.97
2022-10-01T11:04:45.658Z,3.75
2022-10-01T11:07:18.810Z,3.92
2022-10-01T11:10:00.530Z,2.58
2022-10-01T11:13:06.535Z,4.20
2022-10-01T11:16:11.886Z,6.88
2022-10-01T11:18:54.661Z,3.38
2022-10-01T11:21:35.092Z,4.25
2022-10-01T11:24:14.238Z,3.90
2022-10-01T11:27:12.477Z,3.10
2022-10-01T11:29:54.658Z,3.95
2022-10-01T11:32:46.509Z,3.08
2022-10-01T11:35:58.108Z,3.38
2022-10-01T11:38:50.028Z,2.95
2022-10-01T11:41:42.345Z,3.67
2022-10-01T11:44:30.652Z,4.78
2022-10-01T11:47:06.059Z,2.13
2022-10-01T11:49:43.687Z,3.05
2022-10-01T11:52:19.050Z,2.72
2022-10-01T11:54:56.483Z,2.45
2022-10-01T11:57:43.007Z,3.17
2022-10-01T12:00:12.737Z,4.82
2022-10-01T12:03:00.382Z,3.97
2022-10-01T12:05:31.506Z,2.28
2022-10-01T12:08:09.092Z,4.25
2022-10-01T12:10:40.508Z,2.67
2022-10-01T12:13:16.160Z,2.90
2022-10-01T12:16:04.980Z,3.30
2022-10-01T12:18:40.863Z,5.35
2022-10-01T12:21:13.998Z,3.55
2022-10-01T12:23:48.558Z,2.90
2022-10-01T12:26:42.107Z,2.42
2022-10-01T12:29:20.736Z,4.20
2022-10-01T12:32:13.519Z,4.47
2022-10-01T12:35:00.588Z,3.72
2022-10-01T12:37:58.291Z,4.40
2022-10-01T12:40:43.298Z,4.13
2022-10-01T12:43:28.675Z,5.07
2022-10-01T12:46:14.829Z,5.78
2022-10-01T12:48:54.888Z,2.58
2022-10-01T12:51:42.765Z,3.97
2022-10-01T12:54:41.024Z,4.47
2022-10-01T12:57:36.836Z,3.78
2022-10-01T13:00:22.790Z,4.60
2022-10-01T13:03:13.026Z,3.85
2022-10-01T13:06:06.470Z,20.63
2022-10-01T13:08:38.694Z,6.05
2022-10-01T13:11:05.883Z,4.97
2022-10-01T13:13:33.726Z,4.78
2022-10-01T13:16:21.027Z,5.57
2022-10-01T13:19:11.143Z,2.67
2022-10-01T13:21:57.491Z,2.75
2022-10-01T13:24:38.723Z,3.00
2022-10-01T13:27:23.534Z,3.92
2022-10-01T13:29:56.476Z,3.60
2022-10-01T13:32:58.306Z,2.13
2022-10-01T13:35:47.543Z,2.70
2022-10-01T13:38:47.621Z,1.92
2022-10-01T13:41:28.128Z,2.33
2022-10-01T13:43:59.143Z,3.35
2022-10-01T13:46:31.077Z,3.97
2022-10-01T13:49:07.478Z,6.15
2022-10-01T13:51:38.279Z,7.85
2022-10-01T13:54:13.527Z,6.47
2022-10-01T13:56:42.189Z,5.53
2022-10-01T13:59:38.960Z,3.28
2022-10-01T14:02:45.131Z,4.63
2022-10-01T14:05:17.299Z,4.93
2022-10-01T14:07:46.186Z,7.88
2022-10-01T14:10:15.550Z,6.55
2022-10-01T14:13:04.608Z,3.30
2022-10-01T14:16:00.277Z,6.55
2022-10-01T14:18:33.061Z,5.32
2022-10-01T14:21:29.320Z,6.13
2022-10-01T14:24:02.823Z,8.15
2022-10-01T14:26:51.610Z,9.05
2022-10-01T14:29:39.487Z,4.30
2022-10-01T14:32:23.002Z,7.28
2022-10-01T14:35:20.562Z,9.82
2022-10-01T14:37:47.244Z,5.28
2022-10-01T14:40:20.835Z,4.68
2022-10-01T14:43:13.566Z,5.82
2022-10-01T14:45:50.743Z,6.43
2022-10-01T14:48:17.104Z,5.43
2022-10-01T14:50:49.464Z,7.00
2022-10-01T14:53:18.515Z,5.38
2022-10-01T14:55:47.321Z,5.88
2022-10-01T14:58:53.251Z,6.20
2022-10-01T15:01:21.662Z,8.10
2022-10-01T15:03:49.552Z,10.05
2022-10-01T15:06:22.086Z,7.07
2022-10-01T15:08:51.532Z,10.23
2022-10-01T15:11:25.677Z,7.18
2022-10-01T15:13:55.319Z,6.43
2022-10-01T15:16:27.410Z,6.65
2022-10-01T15:19:00.165Z,11.70
2022-10-01T15:21:35.264Z,9.55
2022-10-01T15:24:04.303Z,6.50
2022-10-01T15:26:32.838Z,4.72
2022-10-01T15:29:06.185Z,6.72
2022-10-01T15:31:34.180Z,4.30
2022-10-01T15:34:05.939Z,7.65
2022-10-01T15:36:34.434Z,6.65
2022-10-01T15:39:04.616Z,6.07
2022-10-01T15:41:33.675Z,6.13
2022-10-01T15:44:05.304Z,4.55
2022-10-01T15:46:34.994Z,10.68
2022-10-01T15:49:24.140Z,8.30
2022-10-01T15:52:18.658Z,9.00
2022-10-01T15:54:45.790Z,6.95
2022-10-01T15:57:22.921Z,9.23
2022-10-01T15:59:53.921Z,7.82
2022-10-01T16:02:30.756Z,15.02
2022-10-01T16:05:05.241Z,12.90
2022-10-01T16:07:34.763Z,9.50
2022-10-01T16:10:34.055Z,9.38
2022-10-01T16:13:39.553Z,8.02
2022-10-01T16:16:22.274Z,8.30
2022-10-01T16:18:54.063Z,9.20
2022-10-01T16:21:20.939Z,8.85
2022-10-01T16:23:52.944Z,4.82
2022-10-01T16:26:33.665Z,4.40
2022-10-01T16:29:04.407Z,4.72
2022-10-01T16:31:31.218Z,9.65
2022-10-01T16:33:58.022Z,8.50
2022-10-01T16:36:26.187Z,3.20
2022-10-01T16:38:52.529Z,6.88
2022-10-01T16:41:26.047Z,9.32
2022-10-01T16:43:55.850Z,8.98
2022-10-01T16:46:22.314Z,6.82
2022-10-01T16:48:53.459Z,6.00
2022-10-01T16:51:21.998Z,12.55
2022-10-01T16:53:49.749Z,6.50
2022-10-01T16:56:16.220Z,10.40
2022-10-01T16:58:43.250Z,9.75
2022-10-01T17:01:13.076Z,8.25
2022-10-01T17:03:39.864Z,6.00
2022-10-01T17:06:06.743Z,8.30
2022-10-01T17:08:33.091Z,20.48
2022-10-01T17:11:01.883Z,17.10
2022-10-01T17:13:34.961Z,14.63
2022-10-01T17:16:01.781Z,9.77
2022-10-01T17:18:28.344Z,20.23
2022-10-01T17:20:56.003Z,21.13
2022-10-01T17:23:22.450Z,21.00
2022-10-01T17:25:49.302Z,20.30
2022-10-01T17:28:19.749Z,17.27
2022-10-01T17:30:47.980Z,12.57
2022-10-01T17:33:19.218Z,15.73
2022-10-01T17:35:51.483Z,13.13
2022-10-01T17:38:19.238Z,9.90
2022-10-01T17:40:45.728Z,10.20
2022-10-01T17:43:13.386Z,11.18
2022-10-01T17:45:40.062Z,13.10
2022-10-01T17:48:08.482Z,45.25
2022-10-01T17:50:38.083Z,12.32
2022-10-01T17:53:04.599Z,16.60
2022-10-01T17:55:31.086Z,12.88
2022-10-01T17:57:57.491Z,12.27
2022-10-01T18:00:24.184Z,10.15
2022-10-01T18:02:50.977Z,11.38
2022-10-01T18:05:17.509Z,8.40
2022-10-01T18:07:44.001Z,11.13
2022-10-01T18:10:12.948Z,9.25
2022-10-01T18:12:40.212Z,10.27
2022-10-01T18:15:09.441Z,9.15
2022-10-01T18:17:36.760Z,10.70
2022-10-01T18:20:05.074Z,16.85
2022-10-01T18:22:31.543Z,9.80
2022-10-01T18:24:58.230Z,9.00
2022-10-01T18:27:24.614Z,11.65
2022-10-01T18:29:50.954Z,7.38
2022-10-01T18:32:23.257Z,9.38
2022-10-01T18:34:52.757Z,8.27
2022-10-01T18:37:39.850Z,8.07
2022-10-01T18:40:17.375Z,11.57
2022-10-01T18:42:52.881Z,10.25
2022-10-01T18:45:33.067Z,8.95
2022-10-01T18:48:30.882Z,8.75
2022-10-01T18:51:29.441Z,6.50
2022-10-01T18:54:10.996Z,7.18
2022-10-01T18:56:44.506Z,8.32
2022-10-01T18:59:29.200Z,9.23
2022-10-01T19:02:31.960Z,9.13
2022-10-01T19:05:05.404Z,10.77
2022-10-01T19:07:53.269Z,10.40
2022-10-01T19:10:34.067Z,10.52
2022-10-01T19:13:11.643Z,10.35
2022-10-01T19:15:51.626Z,12.70
2022-10-01T19:18:33.524Z,9.18
2022-10-01T19:21:29.042Z,10.32
2022-10-01T19:24:09.594Z,7.70
2022-10-01T19:26:44.346Z,10.43
2022-10-01T19:29:19.802Z,6.80
2022-10-01T19:31:57.078Z,9.98
2022-10-01T19:34:46.299Z,9.38
2022-10-01T19:37:22.476Z,8.05
2022-10-01T19:39:52.096Z,8.00
2022-10-01T19:42:31.231Z,9.15
2022-10-01T19:45:16.634Z,9.90
2022-10-01T19:48:12.487Z,9.07
2022-10-01T19:50:43.307Z,7.93
2022-10-01T19:53:34.708Z,8.43
2022-10-01T19:56:02.009Z,8.60
2022-10-01T19:58:30.320Z,9.70
2022-10-01T20:00:58.893Z,7.68
2022-10-01T20:03:46.731Z,10.00
2022-10-01T20:06:35.274Z,9.30
2022-10-01T20:09:10.913Z,9.10
2022-10-01T20:12:04.315Z,11.80
2022-10-01T20:15:09.255Z,11.48
2022-10-01T20:17:42.169Z,9.70
2022-10-01T20:21:02.047Z,9.90
2022-10-01T20:23:28.855Z,7.07
2022-10-01T20:26:14.978Z,9.77
2022-10-01T20:29:02.692Z,10.90
2022-10-01T20:31:49.533Z,8.80
2022-10-01T20:34:27.409Z,9.40
2022-10-01T20:37:11.915Z,10.35
2022-10-01T20:39:44.037Z,9.00
2022-10-01T20:42:18.064Z,11.07
2022-10-01T20:44:45.254Z,7.13
2022-10-01T20:47:20.671Z,8.10
2022-10-01T20:50:09.106Z,7.13
2022-10-01T20:52:52.948Z,6.40
2022-10-01T20:55:29.235Z,12.55
2022-10-01T20:58:23.483Z,8.88
2022-10-01T21:00:54.530Z,6.30
2022-10-01T21:03:23.886Z,6.47
2022-10-01T21:06:00.152Z,6.03
2022-10-01T21:08:46.424Z,5.45
2022-10-01T21:11:45.314Z,7.38
2022-10-01T21:14:28.848Z,7.45
2022-10-01T21:17:01.061Z,8.52
2022-10-01T21:20:02.231Z,6.05
2022-10-01T21:22:34.746Z,2.92
2022-10-01T21:25:01.095Z,4.63
2022-10-01T21:27:47.986Z,4.95
2022-10-01T21:30:17.561Z,4.28
2022-10-01T21:33:19.419Z,3.35
2022-10-01T21:36:15.969Z,4.45
2022-10-01T21:38:53.972Z,6.30
2022-10-01T21:41:27.521Z,4.70
2022-10-01T21:44:10.099Z,3.08
2022-10-01T21:46:47.978Z,4.65
2022-10-01T21:49:17.559Z,3.25
2022-10-01T21:52:10.685Z,5.63
2022-10-01T21:55:05.083Z,3.33
2022-10-01T21:57:34.417Z,3.22
2022-10-01T22:00:22.649Z,3.47
2022-10-01T22:03:13.399Z,4.05
2022-10-01T22:05:46.154Z,3.78
2022-10-01T22:08:27.098Z,4.32
2022-10-01T22:10:58.636Z,3.40
2022-10-01T22:13:33.059Z,4.47
2022-10-01T22:16:07.672Z,4.70
2022-10-01T22:18:40.684Z,4.13
2022-10-01T22:21:39.575Z,3.42
2022-10-01T22:24:13.526Z,4.18
2022-10-01T22:26:45.129Z,4.10
2022-10-01T22:29:19.365Z,4.15
2022-10-01T22:31:49.302Z,4.72
2022-10-01T22:34:23.799Z,4.22
2022-10-01T22:37:08.975Z,4.50
2022-10-01T22:39:49.149Z,3.97
2022-10-01T22:42:35.611Z,6.05
2022-10-01T22:47:53.038Z,4.35
2022-10-01T22:50:39.008Z,5.80
2022-10-01T22:53:28.030Z,6.65
2022-10-01T22:55:55.474Z,6.97
2022-10-01T22:58:44.547Z,9.20
2022-10-01T23:01:31.554Z,7.03
2022-10-01T23:04:28.707Z,3.78
2022-10-01T23:07:15.765Z,4.97
2022-10-01T23:09:55.547Z,5.30
2022-10-01T23:12:37.473Z,7.28
2022-10-01T23:15:19.947Z,5.95
2022-10-01T23:18:21.778Z,5.35
2022-10-01T23:21:08.653Z,4.47
2022-10-01T23:23:35.272Z,6.75
2022-10-01T23:26:22.950Z,6.75
2022-10-01T23:29:02.364Z,9.13
2022-10-01T23:31:45.195Z,12.30
2022-10-01T23:34:37.766Z,12.20
2022-10-01T23:37:16.493Z,10.13
2022-10-01T23:39:48.679Z,10.15
2022-10-01T23:42:28.100Z,10.02
2022-10-01T23:45:08.755Z,7.82
2022-10-01T23:47:43.685Z,6.20
2022-10-01T23:50:27.007Z,10.70
2022-10-01T23:53:30.974Z,6.72
2022-10-01T23:56:22.659Z,9.73
2022-10-01T23:58:56.956Z,4.40
